Scf Explorer — WDE2863 — position and weather

sailwx.info

Track history (hours):
 
Tides and Currents Weather Stations Pressure Air Temp Water Temp Dewpoint Dewpoint Depression Visibility Wind Speed Wind Dir Waves Ship Positions

Scf Explorer

Owner: SCF Waxler Marine LLC, St Rose, LA. More information available from US FCC via Universal Licensing System and Coast Guard Vessel Documentation Center.

Last reported at 2015-Jun-26 16:20 UTC. Time now 2015-Jun-30 19:40 UTC.
Position N 29°57' W 090°09'.

Length 35 m; draft 2.3 m.

Type: Ship (hazmat cat B). MMSI: 367330620.

Date/timePositionNaut miles runAvg speedWind from/ knotsBaromVisibWave heightAir tempDewpointWater temp
2015-Jun-26 16:20N 29°57' W 090°09'4 4.9
2015-Jun-26 15:32N 29°55' W 090°05'4 4.5
2015-Jun-26 14:33N 29°56' W 089°60'  
2015-Jun-24 05:19N 29°57' W 090°23'0 0.0
2015-Jun-24 03:30N 29°57' W 090°23'0 0.0
2015-Jun-24 02:33N 29°57' W 090°23'0 0.0
2015-Jun-22 08:29N 29°57' W 090°23'0 0.0
2015-Jun-22 06:28N 29°57' W 090°23'0 0.0
2015-Jun-22 04:28N 29°57' W 090°23'  
2015-Jun-19 23:31N 29°57' W 090°09'5 4.8
2015-Jun-19 22:28N 29°56' W 090°04'5 2.1
2015-Jun-19 20:15N 29°55' W 089°59'1 0.7
2015-Jun-19 19:32N 29°54' W 089°59'0 0.0
2015-Jun-19 18:30N 29°54' W 089°59'32 2.1
2015-Jun-19 03:33N 29°33' W 090°27'6 6.0
2015-Jun-19 02:34N 29°34' W 090°33'6 6.0
2015-Jun-19 01:34N 29°36' W 090°40'3 3.2
2015-Jun-19 00:34N 29°34' W 090°43'2 2.2
2015-Jun-18 23:34N 29°33' W 090°45'0 0.0
2015-Jun-18 22:34N 29°33' W 090°45'1 1.0
2015-Jun-18 21:33N 29°32' W 090°46'  
Track history (hours):
 
Tides and Currents Weather Stations Pressure Air Temp Water Temp Dewpoint Dewpoint Depression Visibility Wind Speed Wind Dir Waves Ship Positions

Scf Explorer

Owner: SCF Waxler Marine LLC, St Rose, LA. More information available from US FCC via Universal Licensing System and Coast Guard Vessel Documentation Center.

Last reported at 2015-Jun-26 16:20 UTC. Time now 2015-Jun-30 19:40 UTC.
Position N 29°57' W 090°09'.

Length 35 m; draft 2.3 m.

Type: Ship (hazmat cat B). MMSI: 367330620.

Date/timePositionNaut miles runAvg speedWind from/ knotsBaromVisibWave heightAir tempDewpointWater temp
2015-Jun-26 16:20N 29°57' W 090°09'4 4.9
2015-Jun-26 15:32N 29°55' W 090°05'4 4.5
2015-Jun-26 14:33N 29°56' W 089°60'  
2015-Jun-24 05:19N 29°57' W 090°23'0 0.0
2015-Jun-24 03:30N 29°57' W 090°23'0 0.0
2015-Jun-24 02:33N 29°57' W 090°23'0 0.0
2015-Jun-22 08:29N 29°57' W 090°23'0 0.0
2015-Jun-22 06:28N 29°57' W 090°23'0 0.0
2015-Jun-22 04:28N 29°57' W 090°23'  
2015-Jun-19 23:31N 29°57' W 090°09'5 4.8
2015-Jun-19 22:28N 29°56' W 090°04'5 2.1
2015-Jun-19 20:15N 29°55' W 089°59'1 0.7
2015-Jun-19 19:32N 29°54' W 089°59'0 0.0
2015-Jun-19 18:30N 29°54' W 089°59'32 2.1
2015-Jun-19 03:33N 29°33' W 090°27'6 6.0
2015-Jun-19 02:34N 29°34' W 090°33'6 6.0
2015-Jun-19 01:34N 29°36' W 090°40'3 3.2
2015-Jun-19 00:34N 29°34' W 090°43'2 2.2
2015-Jun-18 23:34N 29°33' W 090°45'0 0.0
2015-Jun-18 22:34N 29°33' W 090°45'1 1.0
2015-Jun-18 21:33N 29°32' W 090°46'  

Dump ship's entire track history